sensor_id;sensor_type;location;lat;lon;timestamp;pressure;altitude;pressure_sealevel;temperature;humidity
56681;BME280;42558;52.388;13.390;2023-08-12T00:00:55;101519.73;;;15.71;100.00
56681;BME280;42558;52.388;13.390;2023-08-12T00:03:25;101525.02;;;15.65;100.00
56681;BME280;42558;52.388;13.390;2023-08-12T00:05:55;101527.84;;;15.62;100.00
56681;BME280;42558;52.388;13.390;2023-08-12T00:08:26;101531.17;;;15.60;100.00
56681;BME280;42558;52.388;13.390;2023-08-12T00:10:56;101532.73;;;15.54;100.00
56681;BME280;42558;52.388;13.390;2023-08-12T00:13:25;101533.23;;;15.49;100.00
56681;BME280;42558;52.388;13.390;2023-08-12T00:15:55;101534.98;;;15.46;100.00
56681;BME280;42558;52.388;13.390;2023-08-12T00:18:25;101539.02;;;15.43;100.00
56681;BME280;42558;52.388;13.390;2023-08-12T00:20:55;101530.52;;;15.38;100.00
56681;BME280;42558;52.388;13.390;2023-08-12T00:23:25;101528.55;;;15.38;100.00
56681;BME280;42558;52.388;13.390;2023-08-12T00:25:58;101529.25;;;15.37;100.00
56681;BME280;42558;52.388;13.390;2023-08-12T00:28:28;101531.38;;;15.37;100.00
56681;BME280;42558;52.388;13.390;2023-08-12T00:30:58;101529.95;;;15.34;100.00
56681;BME280;42558;52.388;13.390;2023-08-12T00:33:28;101523.55;;;15.31;100.00
56681;BME280;42558;52.388;13.390;2023-08-12T00:35:58;101526.02;;;15.29;100.00
56681;BME280;42558;52.388;13.390;2023-08-12T00:38:28;101519.81;;;15.28;100.00
56681;BME280;42558;52.388;13.390;2023-08-12T00:40:58;101515.73;;;15.30;100.00
56681;BME280;42558;52.388;13.390;2023-08-12T00:43:28;101511.13;;;15.28;100.00
56681;BME280;42558;52.388;13.390;2023-08-12T00:45:58;101511.66;;;15.27;100.00
56681;BME280;42558;52.388;13.390;2023-08-12T00:48:26;101507.93;;;15.28;100.00
56681;BME280;42558;52.388;13.390;2023-08-12T00:50:54;101509.36;;;15.29;100.00
56681;BME280;42558;52.388;13.390;2023-08-12T00:53:23;101501.91;;;15.29;100.00
56681;BME280;42558;52.388;13.390;2023-08-12T00:55:51;101498.72;;;15.28;100.00
56681;BME280;42558;52.388;13.390;2023-08-12T00:58:20;101501.92;;;15.29;100.00
56681;BME280;42558;52.388;13.390;2023-08-12T01:00:49;101493.95;;;15.30;100.00
56681;BME280;42558;52.388;13.390;2023-08-12T01:03:19;101487.39;;;15.30;100.00
56681;BME280;42558;52.388;13.390;2023-08-12T01:05:48;101481.73;;;15.31;100.00
56681;BME280;42558;52.388;13.390;2023-08-12T01:08:16;101482.25;;;15.31;100.00
56681;BME280;42558;52.388;13.390;2023-08-12T01:10:54;101481.19;;;15.30;100.00
56681;BME280;42558;52.388;13.390;2023-08-12T01:13:43;101476.59;;;15.30;100.00
56681;BME280;42558;52.388;13.390;2023-08-12T01:16:18;101472.33;;;15.27;100.00
56681;BME280;42558;52.388;13.390;2023-08-12T01:18:51;101470.55;;;15.26;100.00
56681;BME280;42558;52.388;13.390;2023-08-12T01:21:21;101470.89;;;15.25;100.00
56681;BME280;42558;52.388;13.390;2023-08-12T01:23:54;101473.38;;;15.25;100.00
56681;BME280;42558;52.388;13.390;2023-08-12T01:26:24;101467.86;;;15.22;100.00
56681;BME280;42558;52.388;13.390;2023-08-12T01:28:54;101473.52;;;15.20;100.00
56681;BME280;42558;52.388;13.390;2023-08-12T01:31:36;101471.55;;;15.17;100.00
56681;BME280;42558;52.388;13.390;2023-08-12T01:35:00;101462.67;;;15.14;100.00
56681;BME280;42558;52.388;13.390;2023-08-12T01:37:31;101462.46;;;15.09;100.00
56681;BME280;42558;52.388;13.390;2023-08-12T01:40:02;101457.34;;;15.09;100.00
56681;BME280;42558;52.388;13.390;2023-08-12T01:42:39;101457.34;;;15.10;100.00
56681;BME280;42558;52.388;13.390;2023-08-12T01:45:09;101454.85;;;15.10;100.00
56681;BME280;42558;52.388;13.390;2023-08-12T01:47:43;101455.20;;;15.08;100.00
56681;BME280;42558;52.388;13.390;2023-08-12T01:50:13;101454.67;;;15.08;100.00
56681;BME280;42558;52.388;13.390;2023-08-12T01:52:41;101452.19;;;15.06;100.00
56681;BME280;42558;52.388;13.390;2023-08-12T01:55:08;101447.95;;;15.07;100.00
56681;BME280;42558;52.388;13.390;2023-08-12T01:57:37;101441.73;;;15.04;100.00
56681;BME280;42558;52.388;13.390;2023-08-12T02:00:07;101438.70;;;15.04;100.00
56681;BME280;42558;52.388;13.390;2023-08-12T02:02:36;101441.04;;;15.07;100.00
56681;BME280;42558;52.388;13.390;2023-08-12T02:05:06;101441.73;;;15.09;100.00
56681;BME280;42558;52.388;13.390;2023-08-12T02:07:33;101437.30;;;15.04;100.00
56681;BME280;42558;52.388;13.390;2023-08-12T02:10:02;101432.86;;;15.05;100.00
56681;BME280;42558;52.388;13.390;2023-08-12T02:12:30;101429.89;;;15.11;100.00
56681;BME280;42558;52.388;13.390;2023-08-12T02:14:59;101424.77;;;15.12;100.00
56681;BME280;42558;52.388;13.390;2023-08-12T02:17:27;101418.42;;;15.18;100.00
56681;BME280;42558;52.388;13.390;2023-08-12T02:19:55;101417.40;;;15.26;100.00
56681;BME280;42558;52.388;13.390;2023-08-12T02:22:24;101419.54;;;15.31;100.00
56681;BME280;42558;52.388;13.390;2023-08-12T02:24:52;101413.90;;;15.32;100.00
56681;BME280;42558;52.388;13.390;2023-08-12T02:27:21;101412.84;;;15.33;100.00
56681;BME280;42558;52.388;13.390;2023-08-12T02:29:49;101404.16;;;15.39;100.00
56681;BME280;42558;52.388;13.390;2023-08-12T02:32:17;101402.27;;;15.48;100.00
56681;BME280;42558;52.388;13.390;2023-08-12T02:34:46;101398.73;;;15.50;100.00
56681;BME280;42558;52.388;13.390;2023-08-12T02:37:14;101393.77;;;15.58;100.00
56681;BME280;42558;52.388;13.390;2023-08-12T02:39:43;101397.31;;;15.53;100.00
56681;BME280;42558;52.388;13.390;2023-08-12T02:42:11;101393.92;;;15.50;100.00
56681;BME280;42558;52.388;13.390;2023-08-12T02:44:39;101396.05;;;15.49;100.00
56681;BME280;42558;52.388;13.390;2023-08-12T02:47:08;101395.36;;;15.51;100.00
56681;BME280;42558;52.388;13.390;2023-08-12T02:49:36;101395.35;;;15.50;100.00
56681;BME280;42558;52.388;13.390;2023-08-12T02:52:05;101392.53;;;15.52;100.00
56681;BME280;42558;52.388;13.390;2023-08-12T02:54:33;101384.36;;;15.50;100.00
56681;BME280;42558;52.388;13.390;2023-08-12T02:57:02;101384.35;;;15.49;100.00
56681;BME280;42558;52.388;13.390;2023-08-12T02:59:30;101386.50;;;15.52;100.00
56681;BME280;42558;52.388;13.390;2023-08-12T03:01:58;101382.97;;;15.52;100.00
56681;BME280;42558;52.388;13.390;2023-08-12T03:04:27;101381.70;;;15.50;100.00
56681;BME280;42558;52.388;13.390;2023-08-12T03:06:55;101382.58;;;15.47;100.00
56681;BME280;42558;52.388;13.390;2023-08-12T03:09:24;101381.33;;;15.44;100.00
56681;BME280;42558;52.388;13.390;2023-08-12T03:11:52;101379.89;;;15.37;100.00
56681;BME280;42558;52.388;13.390;2023-08-12T03:14:20;101380.23;;;15.32;100.00
56681;BME280;42558;52.388;13.390;2023-08-12T03:16:49;101383.21;;;15.29;100.00
56681;BME280;42558;52.388;13.390;2023-08-12T03:19:17;101379.81;;;15.21;100.00
56681;BME280;42558;52.388;13.390;2023-08-12T03:21:46;101371.10;;;15.16;100.00
56681;BME280;42558;52.388;13.390;2023-08-12T03:24:14;101370.75;;;15.17;100.00
56681;BME280;42558;52.388;13.390;2023-08-12T03:26:43;101370.75;;;15.14;100.00
56681;BME280;42558;52.388;13.390;2023-08-12T03:29:11;101370.02;;;15.12;100.00
56681;BME280;42558;52.388;13.390;2023-08-12T03:31:39;101368.06;;;15.09;100.00
56681;BME280;42558;52.388;13.390;2023-08-12T03:34:08;101360.30;;;15.13;100.00
56681;BME280;42558;52.388;13.390;2023-08-12T03:36:36;101362.27;;;15.18;100.00
56681;BME280;42558;52.388;13.390;2023-08-12T03:39:05;101353.97;;;15.22;100.00
56681;BME280;42558;52.388;13.390;2023-08-12T03:41:33;101354.54;;;15.32;100.00
56681;BME280;42558;52.388;13.390;2023-08-12T03:44:01;101352.24;;;15.37;100.00
56681;BME280;42558;52.388;13.390;2023-08-12T03:46:30;101355.94;;;15.31;100.00
56681;BME280;42558;52.388;13.390;2023-08-12T03:48:58;101357.17;;;15.29;100.00
56681;BME280;42558;52.388;13.390;2023-08-12T03:51:27;101353.09;;;15.25;100.00
56681;BME280;42558;52.388;13.390;2023-08-12T03:53:55;101345.31;;;15.31;100.00
56681;BME280;42558;52.388;13.390;2023-08-12T03:56:24;101342.66;;;15.35;100.00
56681;BME280;42558;52.388;13.390;2023-08-12T03:58:52;101343.73;;;15.34;100.00
56681;BME280;42558;52.388;13.390;2023-08-12T04:01:20;101341.42;;;15.35;100.00
56681;BME280;42558;52.388;13.390;2023-08-12T04:03:49;101343.20;;;15.34;100.00
56681;BME280;42558;52.388;13.390;2023-08-12T04:06:17;101341.23;;;15.30;100.00
56681;BME280;42558;52.388;13.390;2023-08-12T04:08:46;101340.16;;;15.30;100.00
56681;BME280;42558;52.388;13.390;2023-08-12T04:11:14;101338.92;;;15.30;100.00
56681;BME280;42558;52.388;13.390;2023-08-12T04:13:42;101335.02;;;15.30;100.00
56681;BME280;42558;52.388;13.390;2023-08-12T04:16:11;101331.68;;;15.32;100.00
56681;BME280;42558;52.388;13.390;2023-08-12T04:18:39;101331.14;;;15.33;100.00
56681;BME280;42558;52.388;13.390;2023-08-12T04:21:08;101335.93;;;15.36;100.00
56681;BME280;42558;52.388;13.390;2023-08-12T04:23:36;101336.46;;;15.32;100.00
56681;BME280;42558;52.388;13.390;2023-08-12T04:26:05;101337.52;;;15.27;100.00
56681;BME280;42558;52.388;13.390;2023-08-12T04:28:33;101337.16;;;15.29;100.00
56681;BME280;42558;52.388;13.390;2023-08-12T04:31:06;101335.41;;;15.37;100.00
56681;BME280;42558;52.388;13.390;2023-08-12T04:33:39;101332.23;;;15.42;100.00
56681;BME280;42558;52.388;13.390;2023-08-12T04:36:09;101331.55;;;15.49;100.00
56681;BME280;42558;52.388;13.390;2023-08-12T04:38:39;101329.81;;;15.60;100.00
56681;BME280;42558;52.388;13.390;2023-08-12T04:41:09;101332.70;;;15.77;100.00
56681;BME280;42558;52.388;13.390;2023-08-12T04:43:39;101328.64;;;15.91;100.00
56681;BME280;42558;52.388;13.390;2023-08-12T04:46:09;101333.25;;;15.94;100.00
56681;BME280;42558;52.388;13.390;2023-08-12T04:48:39;101331.30;;;15.95;100.00
56681;BME280;42558;52.388;13.390;2023-08-12T04:51:09;101331.30;;;15.97;100.00
56681;BME280;42558;52.388;13.390;2023-08-12T04:53:39;101330.95;;;16.05;100.00
56681;BME280;42558;52.388;13.390;2023-08-12T04:56:09;101332.91;;;16.19;100.00
56681;BME280;42558;52.388;13.390;2023-08-12T04:58:39;101333.79;;;16.28;100.00
56681;BME280;42558;52.388;13.390;2023-08-12T05:01:09;101330.03;;;16.43;100.00
56681;BME280;42558;52.388;13.390;2023-08-12T05:03:39;101330.20;;;16.52;100.00
56681;BME280;42558;52.388;13.390;2023-08-12T05:06:09;101328.23;;;16.67;99.77
56681;BME280;42558;52.388;13.390;2023-08-12T05:08:39;101325.92;;;16.75;99.43
56681;BME280;42558;52.388;13.390;2023-08-12T05:11:09;101322.17;;;16.86;98.50
56681;BME280;42558;52.388;13.390;2023-08-12T05:13:38;101315.02;;;16.99;97.48
56681;BME280;42558;52.388;13.390;2023-08-12T05:16:08;101309.83;;;17.09;96.73
56681;BME280;42558;52.388;13.390;2023-08-12T05:18:38;101310.82;;;17.23;96.57
56681;BME280;42558;52.388;13.390;2023-08-12T05:21:08;101310.03;;;17.38;95.52
56681;BME280;42558;52.388;13.390;2023-08-12T05:23:38;101315.98;;;17.55;93.88
56681;BME280;42558;52.388;13.390;2023-08-12T05:26:08;101321.06;;;17.68;92.77
56681;BME280;42558;52.388;13.390;2023-08-12T05:28:37;101315.62;;;17.86;93.71
56681;BME280;42558;52.388;13.390;2023-08-12T05:31:08;101311.02;;;18.03;92.26
56681;BME280;42558;52.388;13.390;2023-08-12T05:33:37;101304.82;;;18.23;92.02
56681;BME280;42558;52.388;13.390;2023-08-12T05:36:08;101299.14;;;18.38;90.60
56681;BME280;42558;52.388;13.390;2023-08-12T05:38:39;101293.17;;;18.66;89.54
56681;BME280;42558;52.388;13.390;2023-08-12T05:41:08;101287.39;;;18.75;88.37
56681;BME280;42558;52.388;13.390;2023-08-12T05:43:39;101286.70;;;18.72;87.78
56681;BME280;42558;52.388;13.390;2023-08-12T05:46:09;101293.92;;;18.79;87.06
56681;BME280;42558;52.388;13.390;2023-08-12T05:48:39;101296.55;;;18.83;86.79
56681;BME280;42558;52.388;13.390;2023-08-12T05:51:08;101292.94;;;18.73;86.62
56681;BME280;42558;52.388;13.390;2023-08-12T05:53:38;101296.35;;;18.69;86.95
56681;BME280;42558;52.388;13.390;2023-08-12T05:56:08;101290.40;;;18.76;87.94
56681;BME280;42558;52.388;13.390;2023-08-12T05:58:38;101290.07;;;18.74;88.37
56681;BME280;42558;52.388;13.390;2023-08-12T06:01:08;101292.08;;;18.70;88.24
56681;BME280;42558;52.388;13.390;2023-08-12T06:03:38;101287.96;;;18.70;88.22
56681;BME280;42558;52.388;13.390;2023-08-12T06:06:08;101293.79;;;18.75;89.37
56681;BME280;42558;52.388;13.390;2023-08-12T06:08:38;101299.07;;;18.82;88.89
56681;BME280;42558;52.388;13.390;2023-08-12T06:11:08;101297.71;;;18.91;90.01
56681;BME280;42558;52.388;13.390;2023-08-12T06:13:38;101298.48;;;19.00;89.17
56681;BME280;42558;52.388;13.390;2023-08-12T06:16:08;101296.98;;;19.06;89.41
56681;BME280;42558;52.388;13.390;2023-08-12T06:18:38;101296.03;;;19.11;89.27
56681;BME280;42558;52.388;13.390;2023-08-12T06:21:08;101291.48;;;19.18;88.97
56681;BME280;42558;52.388;13.390;2023-08-12T06:23:38;101289.48;;;19.34;88.70
56681;BME280;42558;52.388;13.390;2023-08-12T06:26:08;101291.02;;;19.51;86.41
56681;BME280;42558;52.388;13.390;2023-08-12T06:28:36;101295.95;;;19.81;85.32
56681;BME280;42558;52.388;13.390;2023-08-12T06:31:05;101294.36;;;19.91;83.33
56681;BME280;42558;52.388;13.390;2023-08-12T06:33:33;101299.15;;;19.93;83.23
56681;BME280;42558;52.388;13.390;2023-08-12T06:36:02;101301.11;;;20.03;84.22
56681;BME280;42558;52.388;13.390;2023-08-12T06:38:30;101297.95;;;20.00;82.29
56681;BME280;42558;52.388;13.390;2023-08-12T06:40:58;101299.16;;;20.12;83.25
56681;BME280;42558;52.388;13.390;2023-08-12T06:43:27;101296.96;;;20.16;83.26
56681;BME280;42558;52.388;13.390;2023-08-12T06:45:58;101298.60;;;20.25;83.65
56681;BME280;42558;52.388;13.390;2023-08-12T06:48:28;101290.13;;;20.29;83.54
56681;BME280;42558;52.388;13.390;2023-08-12T06:50:58;101290.30;;;20.39;83.63
56681;BME280;42558;52.388;13.390;2023-08-12T06:53:27;101292.48;;;20.37;82.01
56681;BME280;42558;52.388;13.390;2023-08-12T06:55:56;101293.42;;;20.46;83.82
56681;BME280;42558;52.388;13.390;2023-08-12T06:58:25;101291.66;;;20.43;83.47
56681;BME280;42558;52.388;13.390;2023-08-12T07:00:56;101293.23;;;20.15;82.02
56681;BME280;42558;52.388;13.390;2023-08-12T07:03:26;101290.83;;;20.19;84.24
56681;BME280;42558;52.388;13.390;2023-08-12T07:05:56;101287.39;;;20.23;83.74
56681;BME280;42558;52.388;13.390;2023-08-12T07:08:26;101282.58;;;20.31;82.63
56681;BME280;42558;52.388;13.390;2023-08-12T07:10:56;101283.31;;;20.40;83.23
56681;BME280;42558;52.388;13.390;2023-08-12T07:13:25;101277.54;;;20.54;83.58
56681;BME280;42558;52.388;13.390;2023-08-12T07:15:55;101270.33;;;20.92;82.12
56681;BME280;42558;52.388;13.390;2023-08-12T07:18:25;101265.60;;;21.37;81.20
56681;BME280;42558;52.388;13.390;2023-08-12T07:20:55;101261.35;;;21.96;78.03
56681;BME280;42558;52.388;13.390;2023-08-12T07:23:28;101261.64;;;22.33;75.98
56681;BME280;42558;52.388;13.390;2023-08-12T07:25:58;101261.54;;;22.31;75.39
56681;BME280;42558;52.388;13.390;2023-08-12T07:28:28;101260.35;;;22.41;75.31
56681;BME280;42558;52.388;13.390;2023-08-12T07:31:01;101255.86;;;22.61;73.33
56681;BME280;42558;52.388;13.390;2023-08-12T07:33:30;101257.63;;;22.55;73.53
56681;BME280;42558;52.388;13.390;2023-08-12T07:36:01;101257.77;;;22.70;75.90
56681;BME280;42558;52.388;13.390;2023-08-12T07:38:31;101253.20;;;22.46;73.87
56681;BME280;42558;52.388;13.390;2023-08-12T07:41:01;101253.10;;;22.18;74.29
56681;BME280;42558;52.388;13.390;2023-08-12T07:43:31;101256.66;;;22.11;74.79
56681;BME280;42558;52.388;13.390;2023-08-12T07:46:01;101255.33;;;22.08;75.30
56681;BME280;42558;52.388;13.390;2023-08-12T07:48:39;101254.16;;;22.11;76.31
56681;BME280;42558;52.388;13.390;2023-08-12T07:51:09;101246.64;;;22.45;75.58
56681;BME280;42558;52.388;13.390;2023-08-12T07:53:39;101242.55;;;22.49;74.22
56681;BME280;42558;52.388;13.390;2023-08-12T07:56:09;101246.96;;;22.52;73.61
56681;BME280;42558;52.388;13.390;2023-08-12T07:58:37;101248.67;;;22.99;74.38
56681;BME280;42558;52.388;13.390;2023-08-12T08:01:04;101244.41;;;23.10;71.22
56681;BME280;42558;52.388;13.390;2023-08-12T08:03:33;101242.98;;;22.98;72.02
56681;BME280;42558;52.388;13.390;2023-08-12T08:06:01;101241.52;;;23.04;72.97
56681;BME280;42558;52.388;13.390;2023-08-12T08:08:30;101243.65;;;23.40;72.70
56681;BME280;42558;52.388;13.390;2023-08-12T08:10:58;101249.48;;;23.31;71.26
56681;BME280;42558;52.388;13.390;2023-08-12T08:13:26;101246.02;;;23.16;71.37
56681;BME280;42558;52.388;13.390;2023-08-12T08:15:55;101249.14;;;23.08;71.42
56681;BME280;42558;52.388;13.390;2023-08-12T08:18:23;101248.14;;;22.99;73.03
56681;BME280;42558;52.388;13.390;2023-08-12T08:20:52;101243.89;;;23.27;72.85
56681;BME280;42558;52.388;13.390;2023-08-12T08:23:20;101239.89;;;22.93;71.09
56681;BME280;42558;52.388;13.390;2023-08-12T08:25:49;101243.41;;;23.07;72.63
56681;BME280;42558;52.388;13.390;2023-08-12T08:28:17;101247.42;;;23.11;73.70
56681;BME280;42558;52.388;13.390;2023-08-12T08:30:45;101248.82;;;23.01;72.26
56681;BME280;42558;52.388;13.390;2023-08-12T08:33:14;101246.33;;;22.81;73.89
56681;BME280;42558;52.388;13.390;2023-08-12T08:35:42;101250.56;;;22.64;74.15
56681;BME280;42558;52.388;13.390;2023-08-12T08:38:10;101250.52;;;22.59;77.57
56681;BME280;42558;52.388;13.390;2023-08-12T08:40:39;101247.60;;;22.62;79.75
56681;BME280;42558;52.388;13.390;2023-08-12T08:43:08;101246.02;;;22.60;80.67
56681;BME280;42558;52.388;13.390;2023-08-12T08:45:37;101242.78;;;22.41;81.25
56681;BME280;42558;52.388;13.390;2023-08-12T08:48:09;101241.80;;;22.25;80.27
56681;BME280;42558;52.388;13.390;2023-08-12T08:50:41;101240.27;;;22.28;84.34
56681;BME280;42558;52.388;13.390;2023-08-12T08:53:13;101243.61;;;22.37;86.77
56681;BME280;42558;52.388;13.390;2023-08-12T08:55:44;101247.32;;;22.40;85.98
56681;BME280;42558;52.388;13.390;2023-08-12T08:58:14;101248.29;;;22.56;85.81
56681;BME280;42558;52.388;13.390;2023-08-12T09:00:51;101252.48;;;22.78;86.69
56681;BME280;42558;52.388;13.390;2023-08-12T09:03:21;101252.05;;;22.88;83.43
56681;BME280;42558;52.388;13.390;2023-08-12T09:05:55;101253.86;;;22.94;81.40
56681;BME280;42558;52.388;13.390;2023-08-12T09:08:27;101255.89;;;22.85;79.45
56681;BME280;42558;52.388;13.390;2023-08-12T09:11:00;101253.23;;;22.91;81.59
56681;BME280;42558;52.388;13.390;2023-08-12T09:13:31;101240.17;;;23.30;79.72
56681;BME280;42558;52.388;13.390;2023-08-12T09:16:01;101237.21;;;23.94;75.86
56681;BME280;42558;52.388;13.390;2023-08-12T09:18:31;101238.27;;;23.95;71.58
56681;BME280;42558;52.388;13.390;2023-08-12T09:21:02;101243.10;;;24.00;70.83
56681;BME280;42558;52.388;13.390;2023-08-12T09:23:39;101243.19;;;24.24;71.55
56681;BME280;42558;52.388;13.390;2023-08-12T09:26:15;101235.51;;;24.87;68.75
56681;BME280;42558;52.388;13.390;2023-08-12T09:28:47;101234.10;;;25.41;66.67
56681;BME280;42558;52.388;13.390;2023-08-12T09:31:25;101231.61;;;25.59;66.75
56681;BME280;42558;52.388;13.390;2023-08-12T09:34:04;101227.34;;;25.13;65.98
56681;BME280;42558;52.388;13.390;2023-08-12T09:36:36;101221.48;;;24.96;67.48
56681;BME280;42558;52.388;13.390;2023-08-12T09:39:07;101223.20;;;24.80;68.89
56681;BME280;42558;52.388;13.390;2023-08-12T09:41:38;101225.86;;;24.70;70.31
56681;BME280;42558;52.388;13.390;2023-08-12T09:44:09;101222.28;;;24.61;69.47
56681;BME280;42558;52.388;13.390;2023-08-12T09:46:39;101220.67;;;24.56;70.53
56681;BME280;42558;52.388;13.390;2023-08-12T09:49:09;101219.30;;;24.54;70.21
56681;BME280;42558;52.388;13.390;2023-08-12T09:51:39;101220.99;;;24.47;70.38
56681;BME280;42558;52.388;13.390;2023-08-12T09:54:12;101221.94;;;24.65;70.39
56681;BME280;42558;52.388;13.390;2023-08-12T09:56:54;101219.31;;;24.83;71.20
56681;BME280;42558;52.388;13.390;2023-08-12T09:59:32;101218.63;;;24.77;69.07
56681;BME280;42558;52.388;13.390;2023-08-12T10:02:04;101218.08;;;24.82;68.69
56681;BME280;42558;52.388;13.390;2023-08-12T10:04:40;101213.59;;;24.82;68.53
56681;BME280;42558;52.388;13.390;2023-08-12T10:07:12;101211.20;;;24.92;68.85
56681;BME280;42558;52.388;13.390;2023-08-12T10:09:41;101209.42;;;24.92;69.20
56681;BME280;42558;52.388;13.390;2023-08-12T10:12:11;101206.30;;;24.97;69.10
56681;BME280;42558;52.388;13.390;2023-08-12T10:14:47;101201.23;;;24.85;69.88
56681;BME280;42558;52.388;13.390;2023-08-12T10:17:18;101198.95;;;24.93;69.94
56681;BME280;42558;52.388;13.390;2023-08-12T10:20:16;101195.07;;;24.63;70.79
56681;BME280;42558;52.388;13.390;2023-08-12T10:22:51;101192.98;;;24.65;71.79
56681;BME280;42558;52.388;13.390;2023-08-12T10:25:21;101188.67;;;24.56;72.82
56681;BME280;42558;52.388;13.390;2023-08-12T10:27:51;101187.34;;;24.58;73.14
56681;BME280;42558;52.388;13.390;2023-08-12T10:30:21;101185.80;;;24.60;74.43
56681;BME280;42558;52.388;13.390;2023-08-12T10:32:51;101183.20;;;24.67;75.42
56681;BME280;42558;52.388;13.390;2023-08-12T10:35:23;101179.09;;;24.71;75.05
56681;BME280;42558;52.388;13.390;2023-08-12T10:37:53;101171.28;;;24.73;74.54
56681;BME280;42558;52.388;13.390;2023-08-12T10:40:23;101165.36;;;24.77;74.79
56681;BME280;42558;52.388;13.390;2023-08-12T10:42:53;101169.44;;;24.79;73.60
56681;BME280;42558;52.388;13.390;2023-08-12T10:45:47;101189.08;;;24.83;76.37
56681;BME280;42558;52.388;13.390;2023-08-12T10:48:25;101190.81;;;24.80;75.26
56681;BME280;42558;52.388;13.390;2023-08-12T10:50:58;101192.46;;;24.84;74.97
56681;BME280;42558;52.388;13.390;2023-08-12T10:53:29;101199.34;;;24.83;74.96
56681;BME280;42558;52.388;13.390;2023-08-12T10:56:04;101195.02;;;24.87;73.74
56681;BME280;42558;52.388;13.390;2023-08-12T10:58:45;101185.94;;;24.89;74.62
56681;BME280;42558;52.388;13.390;2023-08-12T11:01:17;101182.36;;;24.84;74.02
56681;BME280;42558;52.388;13.390;2023-08-12T11:03:48;101176.38;;;24.86;75.12
56681;BME280;42558;52.388;13.390;2023-08-12T11:06:19;101178.94;;;24.75;74.39
56681;BME280;42558;52.388;13.390;2023-08-12T11:08:52;101176.97;;;24.75;75.07
56681;BME280;42558;52.388;13.390;2023-08-12T11:11:23;101178.21;;;24.70;73.75
56681;BME280;42558;52.388;13.390;2023-08-12T11:13:59;101179.09;;;24.71;74.09
56681;BME280;42558;52.388;13.390;2023-08-12T11:16:37;101175.16;;;24.66;73.89
56681;BME280;42558;52.388;13.390;2023-08-12T11:19:07;101173.91;;;24.75;73.14
56681;BME280;42558;52.388;13.390;2023-08-12T11:21:39;101171.61;;;24.70;72.94
56681;BME280;42558;52.388;13.390;2023-08-12T11:24:07;101168.69;;;24.70;73.41
56681;BME280;42558;52.388;13.390;2023-08-12T11:26:38;101174.11;;;24.55;73.38
56681;BME280;42558;52.388;13.390;2023-08-12T11:29:11;101182.86;;;24.43;74.22
56681;BME280;42558;52.388;13.390;2023-08-12T11:31:41;101190.95;;;24.32;75.66
56681;BME280;42558;52.388;13.390;2023-08-12T11:34:11;101196.40;;;24.21;74.84
56681;BME280;42558;52.388;13.390;2023-08-12T11:36:42;101199.55;;;24.08;76.29
56681;BME280;42558;52.388;13.390;2023-08-12T11:39:11;101199.57;;;23.97;79.57
56681;BME280;42558;52.388;13.390;2023-08-12T11:41:41;101202.46;;;23.76;80.21
56681;BME280;42558;52.388;13.390;2023-08-12T11:44:21;101204.25;;;23.71;82.43
56681;BME280;42558;52.388;13.390;2023-08-12T11:46:51;101202.27;;;23.77;84.96
56681;BME280;42558;52.388;13.390;2023-08-12T11:49:21;101205.15;;;23.81;83.77
56681;BME280;42558;52.388;13.390;2023-08-12T11:51:51;101203.95;;;23.69;82.43
56681;BME280;42558;52.388;13.390;2023-08-12T11:54:19;101198.52;;;23.70;82.94
56681;BME280;42558;52.388;13.390;2023-08-12T11:56:49;101196.74;;;23.59;82.82
56681;BME280;42558;52.388;13.390;2023-08-12T11:59:21;101197.69;;;23.62;83.29
56681;BME280;42558;52.388;13.390;2023-08-12T12:01:52;101194.91;;;23.87;84.03
56681;BME280;42558;52.388;13.390;2023-08-12T12:04:21;101196.30;;;24.03;83.66
56681;BME280;42558;52.388;13.390;2023-08-12T12:06:51;101192.36;;;24.08;81.60
56681;BME280;42558;52.388;13.390;2023-08-12T12:09:21;101193.51;;;24.06;82.03
56681;BME280;42558;52.388;13.390;2023-08-12T12:11:55;101195.63;;;24.07;81.01
56681;BME280;42558;52.388;13.390;2023-08-12T12:14:24;101195.02;;;24.04;81.01
56681;BME280;42558;52.388;13.390;2023-08-12T12:16:54;101190.59;;;23.97;81.74
56681;BME280;42558;52.388;13.390;2023-08-12T12:19:23;101189.46;;;23.93;82.37
56681;BME280;42558;52.388;13.390;2023-08-12T12:21:53;101194.29;;;23.84;82.95
56681;BME280;42558;52.388;13.390;2023-08-12T12:24:30;101188.58;;;23.78;83.07
56681;BME280;42558;52.388;13.390;2023-08-12T12:26:58;101177.05;;;23.89;84.15
56681;BME280;42558;52.388;13.390;2023-08-12T12:29:28;101167.11;;;23.96;85.12
56681;BME280;42558;52.388;13.390;2023-08-12T12:31:56;101152.58;;;23.85;86.71
56681;BME280;42558;52.388;13.390;2023-08-12T12:34:24;101135.75;;;23.84;88.00
56681;BME280;42558;52.388;13.390;2023-08-12T12:36:53;101115.52;;;23.61;85.17
56681;BME280;42558;52.388;13.390;2023-08-12T12:39:21;101089.67;;;23.61;85.89
56681;BME280;42558;52.388;13.390;2023-08-12T12:41:50;101085.33;;;23.62;83.87
56681;BME280;42558;52.388;13.390;2023-08-12T12:44:18;101088.52;;;23.68;84.28
56681;BME280;42558;52.388;13.390;2023-08-12T12:46:47;101075.40;;;23.89;82.31
56681;BME280;42558;52.388;13.390;2023-08-12T12:49:15;101071.10;;;24.03;81.27
56681;BME280;42558;52.388;13.390;2023-08-12T12:51:43;101075.83;;;24.25;80.86